sensor_id;sensor_type;location;lat;lon;timestamp;temperature;humidity
17992;DHT22;9121;50.926;5.340;2024-03-06T00:01:56;8.70;99.90
17992;DHT22;9121;50.926;5.340;2024-03-06T00:04:23;8.70;99.90
17992;DHT22;9121;50.926;5.340;2024-03-06T00:06:50;8.80;99.90
17992;DHT22;9121;50.926;5.340;2024-03-06T00:09:19;8.90;99.90
17992;DHT22;9121;50.926;5.340;2024-03-06T00:11:46;8.90;99.90
17992;DHT22;9121;50.926;5.340;2024-03-06T00:14:13;8.70;99.90
17992;DHT22;9121;50.926;5.340;2024-03-06T00:16:40;8.60;99.90
17992;DHT22;9121;50.926;5.340;2024-03-06T00:19:08;8.50;99.90
17992;DHT22;9121;50.926;5.340;2024-03-06T00:21:35;8.40;99.90
17992;DHT22;9121;50.926;5.340;2024-03-06T00:24:03;8.40;99.90
17992;DHT22;9121;50.926;5.340;2024-03-06T00:26:30;8.40;99.90
17992;DHT22;9121;50.926;5.340;2024-03-06T00:28:57;8.40;99.90
17992;DHT22;9121;50.926;5.340;2024-03-06T00:31:24;8.40;99.90
17992;DHT22;9121;50.926;5.340;2024-03-06T00:33:51;8.30;99.90
17992;DHT22;9121;50.926;5.340;2024-03-06T00:36:19;8.20;99.90
17992;DHT22;9121;50.926;5.340;2024-03-06T00:38:48;8.10;99.90
17992;DHT22;9121;50.926;5.340;2024-03-06T00:41:15;8.10;99.90
17992;DHT22;9121;50.926;5.340;2024-03-06T00:43:42;8.00;99.90
17992;DHT22;9121;50.926;5.340;2024-03-06T00:46:09;8.00;99.90
17992;DHT22;9121;50.926;5.340;2024-03-06T00:48:35;8.00;99.90
17992;DHT22;9121;50.926;5.340;2024-03-06T00:51:04;8.00;99.90
17992;DHT22;9121;50.926;5.340;2024-03-06T00:53:34;8.10;99.90
17992;DHT22;9121;50.926;5.340;2024-03-06T00:56:01;8.20;99.90
17992;DHT22;9121;50.926;5.340;2024-03-06T00:58:28;8.30;99.90
17992;DHT22;9121;50.926;5.340;2024-03-06T01:00:55;8.40;99.90
17992;DHT22;9121;50.926;5.340;2024-03-06T01:03:23;8.50;99.90
17992;DHT22;9121;50.926;5.340;2024-03-06T01:05:50;8.40;99.90
17992;DHT22;9121;50.926;5.340;2024-03-06T01:08:19;8.20;99.90
17992;DHT22;9121;50.926;5.340;2024-03-06T01:10:47;8.10;99.90
17992;DHT22;9121;50.926;5.340;2024-03-06T01:13:14;8.10;99.90
17992;DHT22;9121;50.926;5.340;2024-03-06T01:15:41;8.00;99.90
17992;DHT22;9121;50.926;5.340;2024-03-06T01:18:08;7.90;99.90
17992;DHT22;9121;50.926;5.340;2024-03-06T01:20:35;7.80;99.90
17992;DHT22;9121;50.926;5.340;2024-03-06T01:23:02;7.80;99.90
17992;DHT22;9121;50.926;5.340;2024-03-06T01:25:29;7.70;99.90
17992;DHT22;9121;50.926;5.340;2024-03-06T01:27:58;7.60;99.90
17992;DHT22;9121;50.926;5.340;2024-03-06T01:30:25;7.60;99.90
17992;DHT22;9121;50.926;5.340;2024-03-06T01:32:52;7.50;99.90
17992;DHT22;9121;50.926;5.340;2024-03-06T01:35:19;7.60;99.90
17992;DHT22;9121;50.926;5.340;2024-03-06T01:37:46;7.60;99.90
17992;DHT22;9121;50.926;5.340;2024-03-06T01:40:13;7.50;99.90
17992;DHT22;9121;50.926;5.340;2024-03-06T01:42:40;7.40;99.90
17992;DHT22;9121;50.926;5.340;2024-03-06T01:45:09;7.40;99.90
17992;DHT22;9121;50.926;5.340;2024-03-06T01:47:36;7.40;99.90
17992;DHT22;9121;50.926;5.340;2024-03-06T01:50:04;7.30;99.90
17992;DHT22;9121;50.926;5.340;2024-03-06T01:52:34;7.40;99.90
17992;DHT22;9121;50.926;5.340;2024-03-06T01:55:02;7.40;99.90
17992;DHT22;9121;50.926;5.340;2024-03-06T01:57:31;7.50;99.90
17992;DHT22;9121;50.926;5.340;2024-03-06T01:59:58;7.50;99.90
17992;DHT22;9121;50.926;5.340;2024-03-06T02:02:27;7.50;99.90
17992;DHT22;9121;50.926;5.340;2024-03-06T02:04:54;7.50;99.90
17992;DHT22;9121;50.926;5.340;2024-03-06T02:07:23;7.50;99.90
17992;DHT22;9121;50.926;5.340;2024-03-06T02:09:51;7.50;99.90
17992;DHT22;9121;50.926;5.340;2024-03-06T02:12:18;7.40;99.90
17992;DHT22;9121;50.926;5.340;2024-03-06T02:14:45;7.50;99.90
17992;DHT22;9121;50.926;5.340;2024-03-06T02:17:12;7.50;99.90
17992;DHT22;9121;50.926;5.340;2024-03-06T02:19:41;7.50;99.90
17992;DHT22;9121;50.926;5.340;2024-03-06T02:22:10;7.50;99.90
17992;DHT22;9121;50.926;5.340;2024-03-06T02:24:37;7.40;99.90
17992;DHT22;9121;50.926;5.340;2024-03-06T02:27:05;7.30;99.90
17992;DHT22;9121;50.926;5.340;2024-03-06T02:29:32;7.20;99.90
17992;DHT22;9121;50.926;5.340;2024-03-06T02:31:59;7.10;99.90
17992;DHT22;9121;50.926;5.340;2024-03-06T02:34:28;7.10;99.90
17992;DHT22;9121;50.926;5.340;2024-03-06T02:36:55;7.00;99.90
17992;DHT22;9121;50.926;5.340;2024-03-06T02:39:23;7.00;99.90
17992;DHT22;9121;50.926;5.340;2024-03-06T02:41:50;6.90;99.90
17992;DHT22;9121;50.926;5.340;2024-03-06T02:44:17;7.00;99.90
17992;DHT22;9121;50.926;5.340;2024-03-06T02:46:47;7.10;99.90
17992;DHT22;9121;50.926;5.340;2024-03-06T02:49:15;7.00;99.90
17992;DHT22;9121;50.926;5.340;2024-03-06T02:51:42;7.00;99.90
17992;DHT22;9121;50.926;5.340;2024-03-06T02:54:09;7.00;99.90
17992;DHT22;9121;50.926;5.340;2024-03-06T02:56:37;7.10;99.90
17992;DHT22;9121;50.926;5.340;2024-03-06T02:59:04;7.20;99.90
17992;DHT22;9121;50.926;5.340;2024-03-06T03:01:31;7.10;99.90
17992;DHT22;9121;50.926;5.340;2024-03-06T03:03:58;7.10;99.90
17992;DHT22;9121;50.926;5.340;2024-03-06T03:06:25;7.10;99.90
17992;DHT22;9121;50.926;5.340;2024-03-06T03:08:52;6.90;99.90
17992;DHT22;9121;50.926;5.340;2024-03-06T03:11:19;6.80;99.90
17992;DHT22;9121;50.926;5.340;2024-03-06T03:13:47;6.70;99.90
17992;DHT22;9121;50.926;5.340;2024-03-06T03:16:17;6.60;99.90
17992;DHT22;9121;50.926;5.340;2024-03-06T03:18:46;6.50;99.90
17992;DHT22;9121;50.926;5.340;2024-03-06T03:21:13;6.40;99.90
17992;DHT22;9121;50.926;5.340;2024-03-06T03:23:40;6.20;99.90
17992;DHT22;9121;50.926;5.340;2024-03-06T03:26:07;6.10;99.90
17992;DHT22;9121;50.926;5.340;2024-03-06T03:28:37;6.00;99.90
17992;DHT22;9121;50.926;5.340;2024-03-06T03:31:07;6.00;99.90
17992;DHT22;9121;50.926;5.340;2024-03-06T03:33:34;5.90;99.90
17992;DHT22;9121;50.926;5.340;2024-03-06T03:36:04;5.90;99.90
17992;DHT22;9121;50.926;5.340;2024-03-06T03:38:32;5.90;99.90
17992;DHT22;9121;50.926;5.340;2024-03-06T03:41:01;6.00;99.90
17992;DHT22;9121;50.926;5.340;2024-03-06T03:43:29;5.90;99.90
17992;DHT22;9121;50.926;5.340;2024-03-06T03:45:58;5.90;99.90
17992;DHT22;9121;50.926;5.340;2024-03-06T03:48:26;5.90;99.90
17992;DHT22;9121;50.926;5.340;2024-03-06T03:50:53;5.90;99.90
17992;DHT22;9121;50.926;5.340;2024-03-06T03:53:20;5.90;99.90
17992;DHT22;9121;50.926;5.340;2024-03-06T03:55:47;5.90;99.90
17992;DHT22;9121;50.926;5.340;2024-03-06T03:58:14;5.80;99.90
17992;DHT22;9121;50.926;5.340;2024-03-06T04:00:40;5.80;99.90
17992;DHT22;9121;50.926;5.340;2024-03-06T04:03:07;5.90;99.90
17992;DHT22;9121;50.926;5.340;2024-03-06T04:05:36;5.90;99.90
17992;DHT22;9121;50.926;5.340;2024-03-06T04:08:03;5.90;99.90
17992;DHT22;9121;50.926;5.340;2024-03-06T04:10:32;5.90;99.90
17992;DHT22;9121;50.926;5.340;2024-03-06T04:12:59;5.80;99.90
17992;DHT22;9121;50.926;5.340;2024-03-06T04:15:26;5.70;99.90
17992;DHT22;9121;50.926;5.340;2024-03-06T04:17:53;5.60;99.90
17992;DHT22;9121;50.926;5.340;2024-03-06T04:20:20;5.60;99.90
17992;DHT22;9121;50.926;5.340;2024-03-06T04:22:48;5.60;99.90
17992;DHT22;9121;50.926;5.340;2024-03-06T04:25:17;5.60;99.90
17992;DHT22;9121;50.926;5.340;2024-03-06T04:27:44;5.70;99.90
17992;DHT22;9121;50.926;5.340;2024-03-06T04:30:12;5.60;99.90
17992;DHT22;9121;50.926;5.340;2024-03-06T04:32:39;5.40;99.90
17992;DHT22;9121;50.926;5.340;2024-03-06T04:35:07;5.40;99.90
17992;DHT22;9121;50.926;5.340;2024-03-06T04:37:35;5.20;99.90
17992;DHT22;9121;50.926;5.340;2024-03-06T04:40:04;5.00;99.90
17992;DHT22;9121;50.926;5.340;2024-03-06T04:42:33;5.00;99.90
17992;DHT22;9121;50.926;5.340;2024-03-06T04:45:01;5.00;99.90
17992;DHT22;9121;50.926;5.340;2024-03-06T04:47:29;5.00;99.90
17992;DHT22;9121;50.926;5.340;2024-03-06T04:49:57;4.90;99.90
17992;DHT22;9121;50.926;5.340;2024-03-06T04:52:24;4.90;99.90
17992;DHT22;9121;50.926;5.340;2024-03-06T04:54:51;5.00;99.90
17992;DHT22;9121;50.926;5.340;2024-03-06T04:57:20;5.00;99.90
17992;DHT22;9121;50.926;5.340;2024-03-06T04:59:46;5.10;99.90
17992;DHT22;9121;50.926;5.340;2024-03-06T05:02:13;5.00;99.90
17992;DHT22;9121;50.926;5.340;2024-03-06T05:04:40;5.00;99.90
17992;DHT22;9121;50.926;5.340;2024-03-06T05:07:08;5.00;99.90
17992;DHT22;9121;50.926;5.340;2024-03-06T05:09:35;5.00;99.90
17992;DHT22;9121;50.926;5.340;2024-03-06T05:12:02;5.10;99.90
17992;DHT22;9121;50.926;5.340;2024-03-06T05:14:32;5.20;99.90
17992;DHT22;9121;50.926;5.340;2024-03-06T05:16:59;5.30;99.90
17992;DHT22;9121;50.926;5.340;2024-03-06T05:19:26;5.30;99.90
17992;DHT22;9121;50.926;5.340;2024-03-06T05:21:57;5.30;99.90
17992;DHT22;9121;50.926;5.340;2024-03-06T05:24:24;5.30;99.90
17992;DHT22;9121;50.926;5.340;2024-03-06T05:26:51;5.20;99.90
17992;DHT22;9121;50.926;5.340;2024-03-06T05:29:18;5.10;99.90
17992;DHT22;9121;50.926;5.340;2024-03-06T05:31:49;4.90;99.90
17992;DHT22;9121;50.926;5.340;2024-03-06T05:34:16;4.90;99.90
17992;DHT22;9121;50.926;5.340;2024-03-06T05:36:43;5.00;99.90
17992;DHT22;9121;50.926;5.340;2024-03-06T05:39:10;5.00;99.90
17992;DHT22;9121;50.926;5.340;2024-03-06T05:41:38;4.90;99.90
17992;DHT22;9121;50.926;5.340;2024-03-06T05:44:05;4.80;99.90
17992;DHT22;9121;50.926;5.340;2024-03-06T05:46:32;4.90;99.90
17992;DHT22;9121;50.926;5.340;2024-03-06T05:49:01;4.90;99.90
17992;DHT22;9121;50.926;5.340;2024-03-06T05:51:29;4.80;99.90
17992;DHT22;9121;50.926;5.340;2024-03-06T05:53:56;4.90;99.90
17992;DHT22;9121;50.926;5.340;2024-03-06T05:56:23;5.00;99.90
17992;DHT22;9121;50.926;5.340;2024-03-06T05:58:50;5.10;99.90
17992;DHT22;9121;50.926;5.340;2024-03-06T06:01:17;5.00;99.90
17992;DHT22;9121;50.926;5.340;2024-03-06T06:03:46;5.00;99.90
17992;DHT22;9121;50.926;5.340;2024-03-06T06:06:16;5.10;99.90
17992;DHT22;9121;50.926;5.340;2024-03-06T06:08:43;5.10;99.90
17992;DHT22;9121;50.926;5.340;2024-03-06T06:11:10;5.10;99.90
17992;DHT22;9121;50.926;5.340;2024-03-06T06:13:38;5.10;99.90
17992;DHT22;9121;50.926;5.340;2024-03-06T06:16:06;5.10;99.90
17992;DHT22;9121;50.926;5.340;2024-03-06T06:18:33;5.00;99.90
17992;DHT22;9121;50.926;5.340;2024-03-06T06:21:00;5.10;99.90
17992;DHT22;9121;50.926;5.340;2024-03-06T06:23:28;5.10;99.90
17992;DHT22;9121;50.926;5.340;2024-03-06T06:25:55;5.10;99.90
17992;DHT22;9121;50.926;5.340;2024-03-06T06:28:23;5.20;99.90
17992;DHT22;9121;50.926;5.340;2024-03-06T06:30:49;5.30;99.90
17992;DHT22;9121;50.926;5.340;2024-03-06T06:33:18;5.30;99.90
17992;DHT22;9121;50.926;5.340;2024-03-06T06:35:46;5.30;99.90
17992;DHT22;9121;50.926;5.340;2024-03-06T06:38:13;5.30;99.90
17992;DHT22;9121;50.926;5.340;2024-03-06T06:40:41;5.30;99.90
17992;DHT22;9121;50.926;5.340;2024-03-06T06:43:08;5.20;99.90
17992;DHT22;9121;50.926;5.340;2024-03-06T06:45:35;5.10;99.90
17992;DHT22;9121;50.926;5.340;2024-03-06T06:48:03;5.00;99.90
17992;DHT22;9121;50.926;5.340;2024-03-06T06:50:30;5.00;99.90
17992;DHT22;9121;50.926;5.340;2024-03-06T06:52:59;5.00;99.90
17992;DHT22;9121;50.926;5.340;2024-03-06T06:55:26;5.10;99.90
17992;DHT22;9121;50.926;5.340;2024-03-06T06:57:54;5.20;99.90
17992;DHT22;9121;50.926;5.340;2024-03-06T07:00:22;5.30;99.90
17992;DHT22;9121;50.926;5.340;2024-03-06T07:02:50;5.20;99.90
17992;DHT22;9121;50.926;5.340;2024-03-06T07:05:18;5.20;99.90
17992;DHT22;9121;50.926;5.340;2024-03-06T07:07:45;5.30;99.90
17992;DHT22;9121;50.926;5.340;2024-03-06T07:10:12;5.30;99.90
17992;DHT22;9121;50.926;5.340;2024-03-06T07:12:40;5.30;99.90
17992;DHT22;9121;50.926;5.340;2024-03-06T07:15:08;5.40;99.90
17992;DHT22;9121;50.926;5.340;2024-03-06T07:17:35;5.40;99.90
17992;DHT22;9121;50.926;5.340;2024-03-06T07:20:03;5.30;99.90
17992;DHT22;9121;50.926;5.340;2024-03-06T07:22:30;5.40;99.90
17992;DHT22;9121;50.926;5.340;2024-03-06T07:24:59;5.40;99.90
17992;DHT22;9121;50.926;5.340;2024-03-06T07:27:26;5.40;99.90
17992;DHT22;9121;50.926;5.340;2024-03-06T07:29:54;5.40;99.90
17992;DHT22;9121;50.926;5.340;2024-03-06T07:32:22;5.60;99.90
17992;DHT22;9121;50.926;5.340;2024-03-06T07:34:49;5.60;99.90
17992;DHT22;9121;50.926;5.340;2024-03-06T07:37:16;5.70;99.90
17992;DHT22;9121;50.926;5.340;2024-03-06T07:39:43;5.80;99.90
17992;DHT22;9121;50.926;5.340;2024-03-06T07:42:10;5.80;99.90
17992;DHT22;9121;50.926;5.340;2024-03-06T07:44:38;5.80;99.90
17992;DHT22;9121;50.926;5.340;2024-03-06T07:47:05;5.90;99.90
17992;DHT22;9121;50.926;5.340;2024-03-06T07:49:34;5.90;99.90
17992;DHT22;9121;50.926;5.340;2024-03-06T07:52:01;6.00;99.90
17992;DHT22;9121;50.926;5.340;2024-03-06T07:54:29;6.10;99.90
17992;DHT22;9121;50.926;5.340;2024-03-06T07:56:56;6.20;99.90
17992;DHT22;9121;50.926;5.340;2024-03-06T07:59:23;6.30;99.90
17992;DHT22;9121;50.926;5.340;2024-03-06T08:01:50;6.30;99.90
17992;DHT22;9121;50.926;5.340;2024-03-06T08:04:18;6.40;99.90
17992;DHT22;9121;50.926;5.340;2024-03-06T08:06:46;6.50;99.90
17992;DHT22;9121;50.926;5.340;2024-03-06T08:09:13;6.60;99.90
17992;DHT22;9121;50.926;5.340;2024-03-06T08:11:42;6.60;99.90
17992;DHT22;9121;50.926;5.340;2024-03-06T08:14:09;6.70;99.90
17992;DHT22;9121;50.926;5.340;2024-03-06T08:16:36;6.80;99.90
17992;DHT22;9121;50.926;5.340;2024-03-06T08:19:04;7.00;99.90
17992;DHT22;9121;50.926;5.340;2024-03-06T08:21:31;7.10;99.90
17992;DHT22;9121;50.926;5.340;2024-03-06T08:23:59;7.30;99.90
17992;DHT22;9121;50.926;5.340;2024-03-06T08:26:26;7.50;99.90
17992;DHT22;9121;50.926;5.340;2024-03-06T08:28:53;7.70;99.90
17992;DHT22;9121;50.926;5.340;2024-03-06T08:31:20;7.90;99.90
17992;DHT22;9121;50.926;5.340;2024-03-06T08:33:47;8.10;99.90
17992;DHT22;9121;50.926;5.340;2024-03-06T08:36:14;8.20;99.90
17992;DHT22;9121;50.926;5.340;2024-03-06T08:38:41;8.40;99.90
17992;DHT22;9121;50.926;5.340;2024-03-06T08:41:10;8.60;99.90
17992;DHT22;9121;50.926;5.340;2024-03-06T08:43:37;8.80;99.90
17992;DHT22;9121;50.926;5.340;2024-03-06T08:46:03;8.80;99.90
17992;DHT22;9121;50.926;5.340;2024-03-06T08:48:30;8.90;99.90
17992;DHT22;9121;50.926;5.340;2024-03-06T08:50:57;8.90;99.90
17992;DHT22;9121;50.926;5.340;2024-03-06T08:53:24;8.80;99.90
17992;DHT22;9121;50.926;5.340;2024-03-06T08:55:51;8.70;99.90
17992;DHT22;9121;50.926;5.340;2024-03-06T08:58:19;8.80;99.90
17992;DHT22;9121;50.926;5.340;2024-03-06T09:00:47;8.90;99.90
17992;DHT22;9121;50.926;5.340;2024-03-06T09:03:14;9.00;99.90
17992;DHT22;9121;50.926;5.340;2024-03-06T09:05:42;9.00;99.90
17992;DHT22;9121;50.926;5.340;2024-03-06T09:08:09;9.10;99.90
17992;DHT22;9121;50.926;5.340;2024-03-06T09:10:37;9.20;99.90
17992;DHT22;9121;50.926;5.340;2024-03-06T09:13:04;9.20;99.90
17992;DHT22;9121;50.926;5.340;2024-03-06T09:15:32;9.30;99.90
17992;DHT22;9121;50.926;5.340;2024-03-06T09:17:59;9.40;99.90
17992;DHT22;9121;50.926;5.340;2024-03-06T09:20:26;9.40;99.90
17992;DHT22;9121;50.926;5.340;2024-03-06T09:22:53;9.60;99.90
17992;DHT22;9121;50.926;5.340;2024-03-06T09:25:22;9.60;99.90
17992;DHT22;9121;50.926;5.340;2024-03-06T09:27:49;9.60;99.90
17992;DHT22;9121;50.926;5.340;2024-03-06T09:30:16;9.70;99.90
17992;DHT22;9121;50.926;5.340;2024-03-06T09:32:45;9.70;99.90
17992;DHT22;9121;50.926;5.340;2024-03-06T09:35:12;9.80;99.90
17992;DHT22;9121;50.926;5.340;2024-03-06T09:37:44;9.90;99.90
17992;DHT22;9121;50.926;5.340;2024-03-06T09:40:20;9.90;99.90
17992;DHT22;9121;50.926;5.340;2024-03-06T09:42:47;10.00;99.90
17992;DHT22;9121;50.926;5.340;2024-03-06T09:45:15;10.10;99.90
17992;DHT22;9121;50.926;5.340;2024-03-06T09:47:44;10.00;99.90
17992;DHT22;9121;50.926;5.340;2024-03-06T09:50:12;9.90;99.90
17992;DHT22;9121;50.926;5.340;2024-03-06T09:52:43;9.90;99.90
17992;DHT22;9121;50.926;5.340;2024-03-06T09:55:12;9.90;99.90
17992;DHT22;9121;50.926;5.340;2024-03-06T09:57:40;9.90;99.90
17992;DHT22;9121;50.926;5.340;2024-03-06T10:00:08;10.00;99.90
17992;DHT22;9121;50.926;5.340;2024-03-06T10:02:39;10.20;99.90
17992;DHT22;9121;50.926;5.340;2024-03-06T10:05:20;10.40;99.90
17992;DHT22;9121;50.926;5.340;2024-03-06T10:07:47;10.50;99.90
17992;DHT22;9121;50.926;5.340;2024-03-06T10:10:15;10.60;99.90
17992;DHT22;9121;50.926;5.340;2024-03-06T10:12:44;10.60;99.90
17992;DHT22;9121;50.926;5.340;2024-03-06T10:15:13;10.70;99.90
17992;DHT22;9121;50.926;5.340;2024-03-06T10:17:40;10.60;99.90
17992;DHT22;9121;50.926;5.340;2024-03-06T10:20:17;10.50;99.90
17992;DHT22;9121;50.926;5.340;2024-03-06T10:22:49;10.60;99.90
17992;DHT22;9121;50.926;5.340;2024-03-06T10:25:19;10.70;99.90
17992;DHT22;9121;50.926;5.340;2024-03-06T10:27:45;10.70;99.90
17992;DHT22;9121;50.926;5.340;2024-03-06T10:30:13;10.70;99.90
17992;DHT22;9121;50.926;5.340;2024-03-06T10:32:42;10.90;99.90
17992;DHT22;9121;50.926;5.340;2024-03-06T10:35:18;10.90;99.90
17992;DHT22;9121;50.926;5.340;2024-03-06T10:37:48;11.00;99.90
17992;DHT22;9121;50.926;5.340;2024-03-06T10:40:16;10.90;99.90
17992;DHT22;9121;50.926;5.340;2024-03-06T10:42:45;11.00;99.90
17992;DHT22;9121;50.926;5.340;2024-03-06T10:45:14;10.90;99.90
17992;DHT22;9121;50.926;5.340;2024-03-06T10:47:45;11.10;99.90
17992;DHT22;9121;50.926;5.340;2024-03-06T10:50:15;11.20;99.90
17992;DHT22;9121;50.926;5.340;2024-03-06T10:52:42;11.30;99.90
17992;DHT22;9121;50.926;5.340;2024-03-06T10:55:13;11.40;99.90
17992;DHT22;9121;50.926;5.340;2024-03-06T10:57:43;11.60;99.90
17992;DHT22;9121;50.926;5.340;2024-03-06T11:00:11;11.60;99.90
17992;DHT22;9121;50.926;5.340;2024-03-06T11:02:45;11.80;99.90
17992;DHT22;9121;50.926;5.340;2024-03-06T11:05:14;11.90;99.90
17992;DHT22;9121;50.926;5.340;2024-03-06T11:07:41;12.00;99.90
17992;DHT22;9121;50.926;5.340;2024-03-06T11:10:09;12.10;99.90
17992;DHT22;9121;50.926;5.340;2024-03-06T11:12:45;12.00;99.90
17992;DHT22;9121;50.926;5.340;2024-03-06T11:15:15;11.90;99.90
17992;DHT22;9121;50.926;5.340;2024-03-06T11:17:43;11.80;99.90
17992;DHT22;9121;50.926;5.340;2024-03-06T11:20:15;11.90;99.90
17992;DHT22;9121;50.926;5.340;2024-03-06T11:23:04;12.00;99.90
17992;DHT22;9121;50.926;5.340;2024-03-06T11:26:10;12.00;99.90
17992;DHT22;9121;50.926;5.340;2024-03-06T11:28:38;12.00;99.90
17992;DHT22;9121;50.926;5.340;2024-03-06T11:31:16;11.90;99.90
17992;DHT22;9121;50.926;5.340;2024-03-06T11:33:47;11.80;99.90
17992;DHT22;9121;50.926;5.340;2024-03-06T11:36:16;11.90;99.90
17992;DHT22;9121;50.926;5.340;2024-03-06T11:38:46;12.00;99.90
17992;DHT22;9121;50.926;5.340;2024-03-06T11:41:13;12.00;99.90
17992;DHT22;9121;50.926;5.340;2024-03-06T11:43:44;12.10;99.90
17992;DHT22;9121;50.926;5.340;2024-03-06T11:46:12;12.10;99.90
17992;DHT22;9121;50.926;5.340;2024-03-06T11:48:39;11.90;99.90
17992;DHT22;9121;50.926;5.340;2024-03-06T11:51:06;11.90;99.90
17992;DHT22;9121;50.926;5.340;2024-03-06T11:53:34;11.80;99.90
17992;DHT22;9121;50.926;5.340;2024-03-06T11:56:05;11.90;99.90
17992;DHT22;9121;50.926;5.340;2024-03-06T11:58:33;12.10;99.90
17992;DHT22;9121;50.926;5.340;2024-03-06T12:01:01;12.00;99.90
17992;DHT22;9121;50.926;5.340;2024-03-06T12:03:29;12.10;99.90
17992;DHT22;9121;50.926;5.340;2024-03-06T12:05:57;12.50;99.90
17992;DHT22;9121;50.926;5.340;2024-03-06T12:08:24;12.80;99.90
17992;DHT22;9121;50.926;5.340;2024-03-06T12:10:51;12.70;99.90
17992;DHT22;9121;50.926;5.340;2024-03-06T12:13:21;12.50;99.90
17992;DHT22;9121;50.926;5.340;2024-03-06T12:15:48;12.30;99.90
17992;DHT22;9121;50.926;5.340;2024-03-06T12:18:18;12.30;99.90
17992;DHT22;9121;50.926;5.340;2024-03-06T12:20:45;12.30;99.90
17992;DHT22;9121;50.926;5.340;2024-03-06T12:23:19;12.30;99.90
17992;DHT22;9121;50.926;5.340;2024-03-06T12:25:48;12.60;99.90
17992;DHT22;9121;50.926;5.340;2024-03-06T12:28:15;12.70;99.90
17992;DHT22;9121;50.926;5.340;2024-03-06T12:30:43;12.80;99.90
17992;DHT22;9121;50.926;5.340;2024-03-06T12:33:11;13.10;99.90
17992;DHT22;9121;50.926;5.340;2024-03-06T12:35:44;13.40;99.90
17992;DHT22;9121;50.926;5.340;2024-03-06T12:38:12;13.80;99.90
17992;DHT22;9121;50.926;5.340;2024-03-06T12:40:39;14.30;99.90
17992;DHT22;9121;50.926;5.340;2024-03-06T12:43:06;14.80;99.90
17992;DHT22;9121;50.926;5.340;2024-03-06T12:45:35;15.40;99.90
17992;DHT22;9121;50.926;5.340;2024-03-06T12:48:03;15.90;99.90
17992;DHT22;9121;50.926;5.340;2024-03-06T12:50:32;16.30;99.90
17992;DHT22;9121;50.926;5.340;2024-03-06T12:53:00;16.20;99.90
17992;DHT22;9121;50.926;5.340;2024-03-06T12:55:30;16.80;99.90
17992;DHT22;9121;50.926;5.340;2024-03-06T12:57:57;17.30;99.90
17992;DHT22;9121;50.926;5.340;2024-03-06T13:00:24;17.30;99.90
17992;DHT22;9121;50.926;5.340;2024-03-06T13:02:51;17.50;99.90
17992;DHT22;9121;50.926;5.340;2024-03-06T13:05:18;16.90;99.90
17992;DHT22;9121;50.926;5.340;2024-03-06T13:07:45;16.60;99.90
17992;DHT22;9121;50.926;5.340;2024-03-06T13:10:14;17.10;99.90
17992;DHT22;9121;50.926;5.340;2024-03-06T13:12:41;17.70;99.90
17992;DHT22;9121;50.926;5.340;2024-03-06T13:15:08;17.80;99.10
17992;DHT22;9121;50.926;5.340;2024-03-06T13:17:35;17.70;99.50
17992;DHT22;9121;50.926;5.340;2024-03-06T13:20:03;17.90;98.80
17992;DHT22;9121;50.926;5.340;2024-03-06T13:22:30;18.50;98.60
17992;DHT22;9121;50.926;5.340;2024-03-06T13:24:57;18.70;97.10
17992;DHT22;9121;50.926;5.340;2024-03-06T13:27:25;18.80;96.60
17992;DHT22;9121;50.926;5.340;2024-03-06T13:29:53;18.90;95.70
17992;DHT22;9121;50.926;5.340;2024-03-06T13:32:20;18.80;95.70
17992;DHT22;9121;50.926;5.340;2024-03-06T13:34:47;18.60;95.50
17992;DHT22;9121;50.926;5.340;2024-03-06T13:37:14;18.60;95.60
17992;DHT22;9121;50.926;5.340;2024-03-06T13:39:42;18.80;95.40
17992;DHT22;9121;50.926;5.340;2024-03-06T13:42:09;18.80;95.20
17992;DHT22;9121;50.926;5.340;2024-03-06T13:44:37;18.80;94.20
17992;DHT22;9121;50.926;5.340;2024-03-06T13:47:04;18.80;93.00
17992;DHT22;9121;50.926;5.340;2024-03-06T13:49:38;18.40;92.80
17992;DHT22;9121;50.926;5.340;2024-03-06T13:52:06;17.90;93.10
17992;DHT22;9121;50.926;5.340;2024-03-06T13:54:37;17.30;93.70
17992;DHT22;9121;50.926;5.340;2024-03-06T13:57:04;17.30;94.70
17992;DHT22;9121;50.926;5.340;2024-03-06T13:59:32;17.40;94.20
17992;DHT22;9121;50.926;5.340;2024-03-06T14:02:01;16.80;94.80
17992;DHT22;9121;50.926;5.340;2024-03-06T14:04:30;16.60;95.10
17992;DHT22;9121;50.926;5.340;2024-03-06T14:06:57;16.70;94.90
17992;DHT22;9121;50.926;5.340;2024-03-06T14:09:24;16.60;94.90
17992;DHT22;9121;50.926;5.340;2024-03-06T14:11:51;16.30;96.10
17992;DHT22;9121;50.926;5.340;2024-03-06T14:14:18;16.50;96.10
17992;DHT22;9121;50.926;5.340;2024-03-06T14:16:45;16.70;95.60
17992;DHT22;9121;50.926;5.340;2024-03-06T14:19:14;17.00;95.80
17992;DHT22;9121;50.926;5.340;2024-03-06T14:21:41;17.00;93.80
17992;DHT22;9121;50.926;5.340;2024-03-06T14:24:08;15.90;95.20
17992;DHT22;9121;50.926;5.340;2024-03-06T14:26:35;15.20;96.70
17992;DHT22;9121;50.926;5.340;2024-03-06T14:29:03;15.00;96.80
17992;DHT22;9121;50.926;5.340;2024-03-06T14:31:31;15.30;96.40
17992;DHT22;9121;50.926;5.340;2024-03-06T14:33:58;15.80;96.00
17992;DHT22;9121;50.926;5.340;2024-03-06T14:36:27;16.10;95.60
17992;DHT22;9121;50.926;5.340;2024-03-06T14:38:54;16.30;95.40
17992;DHT22;9121;50.926;5.340;2024-03-06T14:41:22;16.30;94.80
17992;DHT22;9121;50.926;5.340;2024-03-06T14:43:49;16.10;94.80
17992;DHT22;9121;50.926;5.340;2024-03-06T14:46:16;16.20;94.80
17992;DHT22;9121;50.926;5.340;2024-03-06T14:48:44;15.70;94.80
17992;DHT22;9121;50.926;5.340;2024-03-06T14:51:11;14.70;95.60
17992;DHT22;9121;50.926;5.340;2024-03-06T14:53:40;14.00;96.20
17992;DHT22;9121;50.926;5.340;2024-03-06T14:56:07;13.70;96.40
17992;DHT22;9121;50.926;5.340;2024-03-06T14:58:36;13.50;96.30
17992;DHT22;9121;50.926;5.340;2024-03-06T15:01:03;13.40;97.00
17992;DHT22;9121;50.926;5.340;2024-03-06T15:03:31;13.40;97.40
17992;DHT22;9121;50.926;5.340;2024-03-06T15:05:58;13.30;97.00
17992;DHT22;9121;50.926;5.340;2024-03-06T15:08:25;13.10;97.80
17992;DHT22;9121;50.926;5.340;2024-03-06T15:10:53;13.20;97.50
17992;DHT22;9121;50.926;5.340;2024-03-06T15:13:20;13.40;97.50
17992;DHT22;9121;50.926;5.340;2024-03-06T15:15:49;13.60;97.40
17992;DHT22;9121;50.926;5.340;2024-03-06T15:18:17;13.70;97.80
17992;DHT22;9121;50.926;5.340;2024-03-06T15:20:44;13.60;98.00
17992;DHT22;9121;50.926;5.340;2024-03-06T15:23:11;13.60;98.00
17992;DHT22;9121;50.926;5.340;2024-03-06T15:25:40;13.50;98.10
17992;DHT22;9121;50.926;5.340;2024-03-06T15:28:10;13.40;98.50
17992;DHT22;9121;50.926;5.340;2024-03-06T15:30:37;13.30;98.10
17992;DHT22;9121;50.926;5.340;2024-03-06T15:33:05;13.30;98.40
17992;DHT22;9121;50.926;5.340;2024-03-06T15:35:32;13.40;97.60
17992;DHT22;9121;50.926;5.340;2024-03-06T15:37:59;13.40;95.80
17992;DHT22;9121;50.926;5.340;2024-03-06T15:40:26;13.40;95.70
17992;DHT22;9121;50.926;5.340;2024-03-06T15:42:54;13.50;95.60
17992;DHT22;9121;50.926;5.340;2024-03-06T15:45:23;13.60;95.50
17992;DHT22;9121;50.926;5.340;2024-03-06T15:47:50;13.50;96.00
17992;DHT22;9121;50.926;5.340;2024-03-06T15:50:17;13.40;94.60
17992;DHT22;9121;50.926;5.340;2024-03-06T15:52:44;13.50;95.30
17992;DHT22;9121;50.926;5.340;2024-03-06T15:55:11;13.70;94.50
17992;DHT22;9121;50.926;5.340;2024-03-06T15:57:39;13.70;94.80
17992;DHT22;9121;50.926;5.340;2024-03-06T16:00:07;13.80;95.90